createdAt,value
2022-09-26T00:03:17.445Z,32.30
2022-09-26T00:08:18.960Z,29.20
2022-09-26T00:10:58.797Z,31.30
2022-09-26T00:13:31.846Z,32.30
2022-09-26T00:16:03.913Z,33.10
2022-09-26T00:18:35.449Z,32.00
2022-09-26T00:21:09.085Z,28.00
2022-09-26T00:23:41.819Z,30.80
2022-09-26T00:26:14.523Z,28.50
2022-09-26T00:28:46.252Z,28.10
2022-09-26T00:31:20.453Z,30.00
2022-09-26T00:33:52.004Z,29.80
2022-09-26T00:36:34.024Z,29.00
2022-09-26T00:39:10.438Z,27.90
2022-09-26T00:41:42.869Z,27.30
2022-09-26T00:44:46.317Z,29.60
2022-09-26T00:47:25.680Z,30.60
2022-09-26T00:50:02.705Z,30.00
2022-09-26T00:52:37.635Z,26.60
2022-09-26T00:55:14.218Z,29.50
2022-09-26T00:57:53.346Z,27.40
2022-09-26T01:00:24.950Z,26.60
2022-09-26T01:02:57.678Z,29.80
2022-09-26T01:05:29.267Z,27.60
2022-09-26T01:08:02.950Z,24.80
2022-09-26T01:10:36.478Z,28.00
2022-09-26T01:13:09.068Z,24.80
2022-09-26T01:15:40.510Z,30.20
2022-09-26T01:18:12.088Z,28.60
2022-09-26T01:20:56.864Z,27.00
2022-09-26T01:23:59.975Z,30.00
2022-09-26T01:26:57.527Z,26.40
2022-09-26T01:30:01.379Z,24.10
2022-09-26T01:32:55.133Z,23.80
2022-09-26T01:35:52.746Z,23.70
2022-09-26T01:38:36.907Z,24.10
2022-09-26T01:41:21.654Z,26.30
2022-09-26T01:44:02.413Z,24.30
2022-09-26T01:46:41.730Z,24.50
2022-09-26T01:49:20.485Z,23.50
2022-09-26T01:51:59.527Z,31.00
2022-09-26T01:54:36.181Z,24.70
2022-09-26T01:57:13.300Z,24.50
2022-09-26T01:59:49.932Z,25.40
2022-09-26T02:02:26.186Z,25.10
2022-09-26T02:05:04.927Z,27.10
2022-09-26T02:07:40.824Z,22.30
2022-09-26T02:10:19.366Z,24.30
2022-09-26T02:12:56.847Z,27.50
2022-09-26T02:15:32.283Z,22.30
2022-09-26T02:18:13.475Z,23.40
2022-09-26T02:20:49.317Z,24.30
2022-09-26T02:23:21.048Z,23.90
2022-09-26T02:25:52.524Z,25.70
2022-09-26T02:30:57.020Z,24.50
2022-09-26T02:33:28.890Z,23.80
2022-09-26T02:36:00.417Z,32.50
2022-09-26T02:38:35.721Z,23.30
2022-09-26T02:41:29.640Z,27.30
2022-09-26T02:44:19.108Z,23.40
2022-09-26T02:47:18.582Z,24.50
2022-09-26T02:50:17.992Z,27.90
2022-09-26T02:53:04.630Z,24.10
2022-09-26T02:55:52.639Z,25.80
2022-09-26T02:58:36.349Z,28.50
2022-09-26T03:01:16.562Z,23.90
2022-09-26T03:03:54.687Z,26.50
2022-09-26T03:06:34.072Z,26.60
2022-09-26T03:09:08.871Z,27.20
2022-09-26T03:11:42.044Z,25.30
2022-09-26T03:14:17.052Z,25.00
2022-09-26T03:16:49.795Z,24.30
2022-09-26T03:19:29.888Z,24.50
2022-09-26T03:22:02.003Z,25.20
2022-09-26T03:24:36.527Z,32.50
2022-09-26T03:27:08.887Z,30.50
2022-09-26T03:29:41.105Z,28.30
2022-09-26T03:32:16.036Z,26.20
2022-09-26T03:34:47.824Z,27.20
2022-09-26T03:39:49.718Z,26.60
2022-09-26T03:42:33.538Z,30.20
2022-09-26T03:45:08.267Z,29.20
2022-09-26T03:48:03.373Z,26.90
2022-09-26T03:50:35.112Z,29.80
2022-09-26T03:55:38.244Z,30.60
2022-09-26T03:58:10.223Z,31.90
2022-09-26T04:00:43.360Z,30.70
2022-09-26T04:03:15.015Z,27.60
2022-09-26T04:08:16.570Z,27.90
2022-09-26T04:10:48.525Z,25.40
2022-09-26T04:16:11.601Z,26.80
2022-09-26T04:18:43.851Z,26.70
2022-09-26T04:21:16.230Z,28.40
2022-09-26T04:23:47.710Z,28.60
2022-09-26T04:28:57.178Z,28.10
2022-09-26T04:31:36.847Z,29.60
2022-09-26T04:34:14.913Z,31.50
2022-09-26T04:36:46.809Z,31.50
2022-09-26T04:39:18.433Z,31.40
2022-09-26T04:41:50.412Z,29.20
2022-09-26T04:46:52.081Z,32.70
2022-09-26T04:49:24.702Z,32.30
2022-09-26T04:54:27.219Z,27.90
2022-09-26T04:59:28.799Z,31.90
2022-09-26T05:02:06.928Z,28.20
2022-09-26T05:04:48.173Z,27.50
2022-09-26T05:07:20.046Z,25.90
2022-09-26T05:09:53.100Z,30.60
2022-09-26T05:12:27.028Z,27.80
2022-09-26T05:14:58.755Z,26.50
2022-09-26T05:17:31.167Z,26.80
2022-09-26T05:20:08.295Z,27.90
2022-09-26T05:22:59.258Z,24.10
2022-09-26T05:25:55.587Z,24.90
2022-09-26T05:28:27.786Z,26.20
2022-09-26T05:30:59.419Z,26.30
2022-09-26T05:36:00.936Z,29.60
2022-09-26T05:38:33.625Z,28.30
2022-09-26T05:41:07.002Z,28.90
2022-09-26T05:43:38.541Z,27.80
2022-09-26T05:46:13.560Z,28.10
2022-09-26T05:48:50.495Z,28.20
2022-09-26T05:51:24.906Z,29.30
2022-09-26T05:53:57.448Z,31.30
2022-09-26T05:56:29.975Z,28.50
2022-09-26T05:59:14.731Z,28.90
2022-09-26T06:02:07.172Z,29.90
2022-09-26T06:04:53.483Z,28.50
2022-09-26T06:07:59.645Z,30.70
2022-09-26T06:10:47.493Z,28.10
2022-09-26T06:15:54.579Z,25.60
2022-09-26T06:18:26.171Z,24.40
2022-09-26T06:23:27.713Z,27.20
2022-09-26T06:28:30.638Z,25.90
2022-09-26T06:31:02.759Z,24.60
2022-09-26T06:33:55.269Z,27.70
2022-09-26T06:36:39.591Z,27.10
2022-09-26T06:39:11.031Z,26.80
2022-09-26T06:44:35.229Z,27.00
2022-09-26T06:47:19.574Z,27.90
2022-09-26T06:52:34.613Z,30.50
2022-09-26T06:55:09.438Z,30.60
2022-09-26T06:57:42.779Z,30.50
2022-09-26T07:00:17.809Z,34.20
2022-09-26T07:03:08.798Z,27.90
2022-09-26T07:05:52.461Z,28.50
2022-09-26T07:08:43.269Z,26.00
2022-09-26T07:11:35.220Z,27.20
2022-09-26T07:14:08.156Z,28.50
2022-09-26T07:16:40.371Z,31.20
2022-09-26T07:19:27.029Z,29.80
2022-09-26T07:22:09.455Z,31.60
2022-09-26T07:24:51.307Z,28.90
2022-09-26T07:29:53.479Z,30.40
2022-09-26T07:32:26.124Z,29.80
2022-09-26T07:35:18.093Z,30.00
2022-09-26T07:37:53.739Z,31.70
2022-09-26T07:40:25.587Z,28.80
2022-09-26T07:43:19.021Z,29.80
2022-09-26T07:46:11.626Z,29.00
2022-09-26T07:49:02.548Z,28.50
2022-09-26T07:52:01.695Z,27.60
2022-09-26T07:54:45.753Z,30.30
2022-09-26T07:57:41.601Z,28.10
2022-09-26T08:00:33.299Z,29.80
2022-09-26T08:03:15.009Z,30.20
2022-09-26T08:05:48.126Z,27.80
2022-09-26T08:08:20.051Z,26.40
2022-09-26T08:11:05.920Z,26.20
2022-09-26T08:13:37.379Z,25.60
2022-09-26T08:16:25.323Z,25.00
2022-09-26T08:19:01.702Z,24.90
2022-09-26T08:21:33.794Z,22.90
2022-09-26T08:26:56.808Z,24.00
2022-09-26T08:29:34.186Z,21.50
2022-09-26T08:32:07.413Z,19.70
2022-09-26T08:34:41.015Z,19.50
2022-09-26T08:37:39.489Z,18.60
2022-09-26T08:40:36.182Z,19.90
2022-09-26T08:43:40.657Z,20.10
2022-09-26T08:46:48.447Z,25.40
2022-09-26T08:50:02.262Z,21.90
2022-09-26T08:52:38.383Z,23.80
2022-09-26T08:55:17.112Z,21.20
2022-09-26T08:57:54.790Z,23.10
2022-09-26T09:00:28.553Z,22.10
2022-09-26T09:03:18.234Z,22.80
2022-09-26T09:05:53.456Z,23.60
2022-09-26T09:08:35.349Z,21.90
2022-09-26T09:11:34.412Z,21.70
2022-09-26T09:14:17.528Z,26.60
2022-09-26T09:17:22.907Z,23.40
2022-09-26T09:20:20.430Z,22.90
2022-09-26T09:23:28.607Z,21.20
2022-09-26T09:29:27.724Z,21.90
2022-09-26T09:32:28.730Z,23.70
2022-09-26T09:35:16.851Z,24.70
2022-09-26T09:38:13.687Z,22.70
2022-09-26T09:40:59.120Z,25.40
2022-09-26T09:43:35.996Z,21.70
2022-09-26T09:46:15.113Z,22.40
2022-09-26T09:48:49.351Z,24.60
2022-09-26T09:51:39.750Z,22.80
2022-09-26T09:54:25.537Z,18.80
2022-09-26T09:57:19.116Z,18.80
2022-09-26T10:00:09.783Z,21.00
2022-09-26T10:03:00.213Z,18.00
2022-09-26T10:05:41.711Z,19.70
2022-09-26T10:08:19.992Z,17.90
2022-09-26T10:11:28.720Z,19.30
2022-09-26T10:14:04.716Z,18.80
2022-09-26T10:17:20.565Z,19.30
2022-09-26T10:20:41.248Z,21.60
2022-09-26T10:23:25.537Z,22.90
2022-09-26T10:26:03.583Z,15.00
2022-09-26T10:28:44.761Z,16.30
2022-09-26T10:31:29.313Z,19.50
2022-09-26T10:34:28.347Z,17.40
2022-09-26T10:37:13.046Z,16.40
2022-09-26T10:40:09.985Z,17.80
2022-09-26T10:42:43.173Z,20.20
2022-09-26T10:45:27.377Z,18.90
2022-09-26T10:48:22.078Z,15.70
2022-09-26T10:51:23.350Z,14.80
2022-09-26T10:54:08.629Z,14.00
2022-09-26T10:56:43.911Z,13.80
2022-09-26T10:59:17.361Z,14.40
2022-09-26T11:01:56.502Z,14.70
2022-09-26T11:04:48.078Z,16.60
2022-09-26T11:07:42.875Z,17.40
2022-09-26T11:10:36.519Z,15.70
2022-09-26T11:13:30.356Z,13.50
2022-09-26T11:16:12.995Z,10.40
2022-09-26T11:18:54.904Z,10.70
2022-09-26T11:21:31.568Z,11.60
2022-09-26T11:24:15.358Z,12.20
2022-09-26T11:26:59.619Z,14.90
2022-09-26T11:29:43.327Z,11.80
2022-09-26T11:32:29.276Z,13.90
2022-09-26T11:35:03.505Z,12.20
2022-09-26T11:37:56.034Z,15.40
2022-09-26T11:40:40.619Z,15.30
2022-09-26T11:43:32.097Z,13.50
2022-09-26T11:46:27.232Z,17.00
2022-09-26T11:49:31.177Z,18.80
2022-09-26T11:52:54.319Z,14.20
2022-09-26T11:55:32.228Z,20.60
2022-09-26T11:58:11.064Z,21.30
2022-09-26T12:00:54.577Z,20.40
2022-09-26T12:03:51.101Z,18.20
2022-09-26T12:06:33.543Z,16.30
2022-09-26T12:09:22.051Z,13.70
2022-09-26T12:12:06.970Z,15.00
2022-09-26T12:14:54.159Z,13.30
2022-09-26T12:17:35.399Z,12.50
2022-09-26T12:22:53.299Z,11.90
2022-09-26T12:25:42.137Z,12.30
2022-09-26T12:28:25.509Z,11.00
2022-09-26T12:31:07.916Z,9.40
2022-09-26T12:34:00.468Z,13.10
2022-09-26T12:36:47.980Z,11.90
2022-09-26T12:39:47.308Z,10.30
2022-09-26T12:42:35.011Z,12.00
2022-09-26T12:45:28.518Z,11.50
2022-09-26T12:48:19.352Z,14.00
2022-09-26T12:51:02.725Z,9.00
2022-09-26T12:53:51.282Z,11.00
2022-09-26T12:56:36.828Z,16.30
2022-09-26T12:59:26.075Z,11.60
2022-09-26T13:02:17.583Z,10.90
2022-09-26T13:05:03.259Z,13.30
2022-09-26T13:07:48.077Z,15.10
2022-09-26T13:10:38.461Z,13.60
2022-09-26T13:13:29.035Z,11.70
2022-09-26T13:16:16.414Z,18.40
2022-09-26T13:18:50.925Z,15.50
2022-09-26T13:21:32.310Z,15.30
2022-09-26T13:24:47.859Z,11.40
2022-09-26T13:27:26.729Z,14.00
2022-09-26T13:30:04.574Z,11.80
2022-09-26T13:32:47.751Z,9.60
2022-09-26T13:35:22.988Z,17.50
2022-09-26T13:38:10.361Z,13.10
2022-09-26T13:40:51.546Z,11.30
2022-09-26T13:43:43.661Z,14.20
2022-09-26T13:46:26.913Z,19.70
2022-09-26T13:49:07.023Z,12.60
2022-09-26T13:51:49.308Z,15.00
2022-09-26T13:54:27.140Z,15.90
2022-09-26T13:56:58.669Z,15.80
2022-09-26T13:59:50.128Z,18.90
2022-09-26T14:05:15.105Z,18.30
2022-09-26T14:08:11.183Z,19.50
2022-09-26T14:10:52.995Z,24.90
2022-09-26T14:13:36.856Z,17.80
2022-09-26T14:16:36.935Z,18.40
2022-09-26T14:19:12.145Z,19.60
2022-09-26T14:21:57.998Z,23.10
2022-09-26T14:24:32.741Z,23.80
2022-09-26T14:27:22.218Z,23.60
2022-09-26T14:29:59.789Z,24.30
2022-09-26T14:32:38.758Z,25.60
2022-09-26T14:35:21.093Z,27.20
2022-09-26T14:37:53.462Z,23.30
2022-09-26T14:40:37.787Z,23.90
2022-09-26T14:43:15.824Z,23.80
2022-09-26T14:45:53.431Z,25.70
2022-09-26T14:48:36.867Z,22.00
2022-09-26T14:51:25.664Z,15.80
2022-09-26T14:54:00.503Z,15.50
2022-09-26T14:56:44.257Z,15.50
2022-09-26T14:59:38.259Z,16.60
2022-09-26T15:02:26.806Z,16.40
2022-09-26T15:05:13.578Z,12.50
2022-09-26T15:07:47.955Z,13.70
2022-09-26T15:10:36.329Z,13.90
2022-09-26T15:13:21.926Z,12.80
2022-09-26T15:16:00.504Z,20.40
2022-09-26T15:18:39.647Z,13.10
2022-09-26T15:21:26.359Z,12.90
2022-09-26T15:23:58.520Z,11.70
2022-09-26T15:26:32.925Z,15.40
2022-09-26T15:29:08.001Z,14.70
2022-09-26T15:31:45.051Z,14.80
2022-09-26T15:34:19.426Z,15.10
2022-09-26T15:36:56.419Z,14.70
2022-09-26T15:39:41.860Z,13.90
2022-09-26T15:42:48.050Z,11.70
2022-09-26T15:45:26.156Z,11.90
2022-09-26T15:48:00.398Z,13.20
2022-09-26T15:50:39.713Z,9.00
2022-09-26T15:53:22.637Z,8.30
2022-09-26T15:55:58.761Z,10.20
2022-09-26T15:58:35.449Z,9.40
2022-09-26T16:01:08.545Z,13.60
2022-09-26T16:03:45.898Z,16.10
2022-09-26T16:06:25.901Z,12.50
2022-09-26T16:09:02.365Z,10.20
2022-09-26T16:11:35.629Z,13.10
2022-09-26T16:14:07.374Z,12.70
2022-09-26T16:16:39.092Z,11.10
2022-09-26T16:19:34.145Z,13.00
2022-09-26T16:22:37.312Z,15.60
2022-09-26T16:25:32.062Z,15.40
2022-09-26T16:28:32.096Z,13.60
2022-09-26T16:31:18.923Z,11.60
2022-09-26T16:33:53.893Z,13.90
2022-09-26T16:36:27.831Z,14.40
2022-09-26T16:39:02.233Z,13.00
2022-09-26T16:44:35.455Z,14.70
2022-09-26T16:47:35.650Z,14.60
2022-09-26T16:50:29.760Z,9.90
2022-09-26T16:53:04.894Z,12.80
2022-09-26T16:55:37.578Z,13.90
2022-09-26T16:58:13.782Z,13.10
2022-09-26T17:01:03.016Z,10.50
2022-09-26T17:03:36.643Z,10.20
2022-09-26T17:06:08.892Z,10.90
2022-09-26T17:08:41.795Z,11.90
2022-09-26T17:11:17.288Z,13.80
2022-09-26T17:13:50.126Z,11.00
2022-09-26T17:16:22.299Z,10.10
2022-09-26T17:18:54.277Z,8.20
2022-09-26T17:21:26.267Z,12.60
2022-09-26T17:23:58.131Z,12.70
2022-09-26T17:26:31.664Z,9.20
2022-09-26T17:29:03.676Z,18.30
2022-09-26T17:31:35.466Z,17.50
2022-09-26T17:34:07.253Z,43.70
2022-09-26T17:36:39.246Z,24.70
2022-09-26T17:39:16.944Z,11.70
2022-09-26T17:41:49.189Z,11.60
2022-09-26T17:44:22.086Z,10.90
2022-09-26T17:46:55.803Z,11.20
2022-09-26T17:49:31.717Z,12.40
2022-09-26T17:52:05.060Z,14.20
2022-09-26T17:54:42.659Z,30.60
2022-09-26T17:57:15.498Z,26.30
2022-09-26T17:59:48.058Z,20.70
2022-09-26T18:02:24.494Z,12.80
2022-09-26T18:04:57.887Z,16.20
2022-09-26T18:07:34.218Z,15.40
2022-09-26T18:10:11.419Z,13.40
2022-09-26T18:12:44.607Z,15.10
2022-09-26T18:15:22.291Z,12.50
2022-09-26T18:17:54.672Z,11.70
2022-09-26T18:20:33.712Z,13.10
2022-09-26T18:23:07.821Z,18.00
2022-09-26T18:25:39.573Z,15.70
2022-09-26T18:28:15.945Z,13.50
2022-09-26T18:30:49.170Z,14.20
2022-09-26T18:33:20.952Z,14.50
2022-09-26T18:35:53.340Z,18.20
2022-09-26T18:38:25.109Z,15.80
2022-09-26T18:40:58.829Z,12.50
2022-09-26T18:43:32.177Z,18.30
2022-09-26T18:46:08.615Z,22.90
2022-09-26T18:48:41.827Z,20.10
2022-09-26T18:51:14.540Z,21.30
2022-09-26T18:53:46.303Z,16.70
2022-09-26T18:56:35.925Z,22.50
2022-09-26T18:59:10.392Z,16.30
2022-09-26T19:01:44.153Z,20.10
2022-09-26T19:04:19.698Z,17.90
2022-09-26T19:07:00.989Z,15.60
2022-09-26T19:09:36.703Z,19.60
2022-09-26T19:12:11.149Z,22.20
2022-09-26T19:14:42.869Z,17.30
2022-09-26T19:17:14.715Z,17.50
2022-09-26T19:19:46.519Z,12.90
2022-09-26T19:22:19.389Z,12.80
2022-09-26T19:24:54.387Z,12.30
2022-09-26T19:27:28.532Z,14.80
2022-09-26T19:30:04.472Z,18.50
2022-09-26T19:32:40.572Z,15.40
2022-09-26T19:35:21.796Z,15.10
2022-09-26T19:37:54.144Z,16.30
2022-09-26T19:40:27.812Z,14.20
2022-09-26T19:43:54.930Z,15.40
2022-09-26T19:46:28.499Z,14.30
2022-09-26T19:49:00.436Z,15.10
2022-09-26T19:51:33.781Z,15.20
2022-09-26T19:54:06.504Z,17.30
2022-09-26T19:56:38.294Z,16.80
2022-09-26T20:01:42.284Z,15.10
2022-09-26T20:04:19.362Z,17.70
2022-09-26T20:06:51.171Z,15.10
2022-09-26T20:11:52.789Z,15.90
2022-09-26T20:14:24.465Z,13.70
2022-09-26T20:16:59.249Z,13.30
2022-09-26T20:19:37.441Z,17.40
2022-09-26T20:22:14.760Z,16.80
2022-09-26T20:24:48.688Z,14.20
2022-09-26T20:27:23.031Z,15.20
2022-09-26T20:30:12.502Z,14.60
2022-09-26T20:32:43.974Z,16.40
2022-09-26T20:37:47.498Z,19.80
2022-09-26T20:40:22.659Z,15.30
2022-09-26T20:42:59.111Z,19.70
2022-09-26T20:45:33.932Z,17.10
2022-09-26T20:48:07.959Z,20.70
2022-09-26T20:50:39.575Z,20.90
2022-09-26T20:55:46.644Z,18.50
2022-09-26T21:00:48.322Z,18.00
2022-09-26T21:05:51.580Z,19.90
2022-09-26T21:10:58.669Z,20.60
2022-09-26T21:13:30.283Z,20.30
2022-09-26T21:16:02.221Z,28.90
2022-09-26T21:18:33.893Z,28.60
2022-09-26T21:23:59.200Z,24.10
2022-09-26T21:26:31.298Z,23.50
2022-09-26T21:29:05.281Z,24.00
2022-09-26T21:31:38.239Z,23.40
2022-09-26T21:34:14.638Z,25.40
2022-09-26T21:36:47.616Z,29.40
2022-09-26T21:39:20.939Z,25.90
2022-09-26T21:41:56.775Z,30.20
2022-09-26T21:44:33.135Z,27.00
2022-09-26T21:47:04.644Z,26.40
2022-09-26T21:49:36.209Z,26.40
2022-09-26T21:54:45.905Z,26.20
2022-09-26T21:57:22.162Z,31.80
2022-09-26T21:59:54.911Z,28.60
2022-09-26T22:02:27.431Z,25.30
2022-09-26T22:05:00.362Z,26.70
2022-09-26T22:07:31.850Z,27.50
2022-09-26T22:10:03.267Z,27.90
2022-09-26T22:12:35.148Z,29.90
2022-09-26T22:15:08.704Z,25.70
2022-09-26T22:17:40.186Z,31.10
2022-09-26T22:20:13.501Z,24.80
2022-09-26T22:22:45.140Z,27.90
2022-09-26T22:27:46.659Z,27.40
2022-09-26T22:30:18.099Z,27.50
2022-09-26T22:32:49.560Z,25.00
2022-09-26T22:35:21.947Z,21.10
2022-09-26T22:37:53.371Z,24.70
2022-09-26T22:40:24.882Z,24.90
2022-09-26T22:45:26.286Z,25.00
2022-09-26T22:47:58.724Z,25.90
2022-09-26T22:50:30.216Z,24.20
2022-09-26T22:53:01.714Z,22.40
2022-09-26T22:55:33.127Z,21.20
2022-09-26T22:58:04.612Z,23.90
2022-09-26T23:00:36.120Z,20.70
2022-09-26T23:03:07.589Z,20.70
2022-09-26T23:08:10.242Z,26.20
2022-09-26T23:10:48.468Z,26.10
2022-09-26T23:13:20.033Z,29.40
2022-09-26T23:15:51.444Z,22.80
2022-09-26T23:18:23.226Z,20.40
2022-09-26T23:20:54.640Z,22.90
2022-09-26T23:23:26.063Z,20.30
2022-09-26T23:25:57.548Z,22.00
2022-09-26T23:28:29.149Z,21.20
2022-09-26T23:33:37.964Z,22.00
2022-09-26T23:36:11.457Z,16.30
2022-09-26T23:38:43.134Z,23.40
2022-09-26T23:43:46.366Z,21.90
2022-09-26T23:46:18.299Z,25.30
2022-09-26T23:48:49.915Z,23.70
2022-09-26T23:51:21.424Z,25.00
2022-09-26T23:53:54.726Z,26.10
2022-09-26T23:56:26.189Z,24.40
2022-09-26T23:58:59.159Z,28.40
